Time;durP1;ratioP1;P1;durP2;ratioP2;P2;SDS_P1;SDS_P2;PMS_P1;PMS_P2;Temp;Humidity;BMP_temperature;BMP_pressure;BME280_temperature;BME280_humidity;BME280_pressure;Samples;Min_cycle;Max_cycle;Signal;HPM_P1;HPM_P2
2021/10/11 00:00:22;;;;;;;27.23;19.40;;;;;;;6.48;96.75;101382.47;5061219;28;20512;-53
2021/10/11 00:02:48;;;;;;;28.38;19.20;;;;;;;6.45;96.66;101389.56;5059322;28;20045;-52
2021/10/11 00:05:16;;;;;;;29.27;19.17;;;;;;;6.36;96.76;101393.19;5059706;28;20059;-52
2021/10/11 00:07:43;;;;;;;33.65;19.95;;;;;;;6.34;97.59;101394.97;5051938;28;20059;-53
2021/10/11 00:10:16;;;;;;;32.80;20.27;;;;;;;6.31;97.40;101395.00;5059762;28;20048;-52
2021/10/11 00:12:43;;;;;;;30.73;19.02;;;;;;;6.24;97.41;101395.97;5060646;28;20048;-52
2021/10/11 00:15:09;;;;;;;30.40;19.70;;;;;;;6.15;97.33;101390.81;5053346;28;20048;-54
2021/10/11 00:17:36;;;;;;;29.05;19.20;;;;;;;6.11;97.37;101389.16;5056931;28;20056;-54
2021/10/11 00:20:03;;;;;;;29.25;19.00;;;;;;;6.06;96.85;101391.81;5054824;28;20052;-54
2021/10/11 00:22:30;;;;;;;25.70;18.55;;;;;;;6.08;96.96;101403.19;5060516;28;20049;-54
2021/10/11 00:24:56;;;;;;;29.70;19.52;;;;;;;6.03;96.60;101394.50;5060698;28;20048;-53
2021/10/11 00:27:23;;;;;;;28.20;18.75;;;;;;;6.00;97.54;101405.03;5057746;28;20037;-52
2021/10/11 00:29:49;;;;;;;28.90;18.77;;;;;;;5.99;96.99;101404.16;5055521;28;20789;-52
2021/10/11 00:32:16;;;;;;;26.33;18.90;;;;;;;5.92;96.92;101396.38;5061082;28;20048;-54
2021/10/11 00:34:43;;;;;;;28.83;19.05;;;;;;;5.96;97.34;101403.34;5057269;28;20057;-53
2021/10/11 00:37:09;;;;;;;26.83;18.88;;;;;;;5.94;97.64;101398.13;5056762;28;20044;-52
2021/10/11 00:39:35;;;;;;;28.58;18.65;;;;;;;5.93;97.35;101393.75;5059633;28;20376;-53
2021/10/11 00:42:03;;;;;;;27.25;18.80;;;;;;;5.92;97.63;101388.50;5058045;28;20525;-52
2021/10/11 00:44:29;;;;;;;30.92;19.30;;;;;;;5.87;97.23;101385.00;5056714;28;20053;-55
2021/10/11 00:46:56;;;;;;;27.70;19.35;;;;;;;5.82;98.29;101376.34;5055915;28;20045;-52
2021/10/11 00:49:22;;;;;;;28.45;19.85;;;;;;;5.86;98.06;101384.16;5049542;28;20037;-51
2021/10/11 00:51:49;;;;;;;28.60;19.52;;;;;;;5.88;98.75;101377.16;5062898;28;20048;-52
2021/10/11 00:54:17;;;;;;;28.60;20.13;;;;;;;5.89;98.55;101371.00;5055043;28;20045;-52
2021/10/11 00:56:44;;;;;;;31.67;21.73;;;;;;;5.94;99.22;101381.47;5059614;28;20048;-53
2021/10/11 00:59:11;;;;;;;28.55;20.02;;;;;;;5.96;98.89;101377.06;5047468;28;20048;-54
2021/10/11 01:01:38;;;;;;;28.17;19.45;;;;;;;5.97;97.71;101386.69;5060722;28;20052;-54
2021/10/11 01:04:06;;;;;;;30.55;20.75;;;;;;;5.93;97.23;101385.84;5060320;28;20166;-53
2021/10/11 01:06:37;;;;;;;31.35;19.60;;;;;;;5.89;97.12;101381.53;5055583;28;20052;-53
2021/10/11 01:09:05;;;;;;;30.42;19.77;;;;;;;5.86;98.13;101378.88;5060346;28;20053;-53
2021/10/11 01:11:32;;;;;;;30.65;19.98;;;;;;;5.83;97.66;101375.41;5061417;28;20045;-53
2021/10/11 01:13:58;;;;;;;28.40;19.58;;;;;;;5.72;97.74;101364.16;5059203;28;20036;-56
2021/10/11 01:16:25;;;;;;;26.13;18.73;;;;;;;5.82;98.74;101384.22;5054768;28;20068;-54
2021/10/11 01:18:52;;;;;;;29.73;19.67;;;;;;;5.70;98.28;101366.81;5054321;28;20496;-53
2021/10/11 01:21:18;;;;;;;28.30;18.52;;;;;;;5.76;98.11;101374.63;5054295;28;20055;-53
2021/10/11 01:23:45;;;;;;;26.85;18.92;;;;;;;5.74;98.35;101367.66;5058067;28;20045;-52
2021/10/11 01:26:11;;;;;;;32.88;20.45;;;;;;;5.73;99.31;101371.16;5057390;28;20048;-52
2021/10/11 01:28:38;;;;;;;27.65;19.00;;;;;;;5.70;98.62;101365.94;5056220;28;20044;-53
2021/10/11 01:31:04;;;;;;;32.15;19.25;;;;;;;5.68;99.00;101357.19;5059285;28;20508;-52
2021/10/11 01:33:31;;;;;;;26.80;18.52;;;;;;;5.66;99.10;101338.84;5056598;28;20498;-53
2021/10/11 01:35:58;;;;;;;29.45;19.40;;;;;;;5.63;99.31;101342.38;5056353;28;20045;-52
2021/10/11 01:38:24;;;;;;;31.13;19.50;;;;;;;5.67;99.89;101344.97;5061278;28;20494;-52
2021/10/11 01:40:51;;;;;;;28.80;19.90;;;;;;;5.55;99.74;101324.94;5051610;28;20103;-52
2021/10/11 01:43:17;;;;;;;31.35;20.73;;;;;;;5.66;99.84;101341.47;5051605;28;20052;-52
2021/10/11 01:45:49;;;;;;;30.35;19.92;;;;;;;5.65;99.59;101347.63;5056428;28;20036;-54
2021/10/11 01:48:15;;;;;;;27.42;18.98;;;;;;;5.69;100.00;101351.06;5051508;28;20049;-53
2021/10/11 01:50:42;;;;;;;31.75;19.75;;;;;;;5.71;100.00;101347.53;5058590;28;20063;-51
2021/10/11 01:53:08;;;;;;;30.27;20.30;;;;;;;5.72;99.66;101348.41;5056795;28;20573;-54
2021/10/11 01:55:35;;;;;;;29.40;19.83;;;;;;;5.76;99.63;101352.75;5060112;28;20056;-53
2021/10/11 01:58:02;;;;;;;27.77;19.08;;;;;;;5.72;99.46;101344.03;5058072;28;20504;-54
2021/10/11 02:00:29;;;;;;;30.75;19.60;;;;;;;5.68;98.78;101338.81;5059039;28;20460;-52
2021/10/11 02:02:56;;;;;;;28.13;19.98;;;;;;;5.62;99.50;101337.16;5056632;28;20541;-55
2021/10/11 02:05:23;;;;;;;27.42;18.77;;;;;;;5.55;99.40;101338.09;5062596;28;20052;-52
2021/10/11 02:07:49;;;;;;;27.45;19.80;;;;;;;5.55;99.49;101344.22;5060788;28;20045;-52
2021/10/11 02:10:15;;;;;;;28.60;19.60;;;;;;;5.55;99.65;101343.34;5061986;28;20839;-53
2021/10/11 02:12:42;;;;;;;26.27;18.15;;;;;;;5.45;99.40;101331.22;5062829;28;20131;-53
2021/10/11 02:15:09;;;;;;;27.00;18.48;;;;;;;5.47;98.54;101337.31;5052922;28;20413;-53
2021/10/11 02:17:35;;;;;;;26.35;18.52;;;;;;;5.43;98.44;101354.00;5056117;28;20426;-51
2021/10/11 02:20:03;;;;;;;25.95;18.35;;;;;;;5.35;98.16;101359.34;5059500;28;20056;-52
2021/10/11 02:22:30;;;;;;;26.27;18.77;;;;;;;5.29;98.29;101360.25;5059985;28;20080;-53
2021/10/11 02:24:56;;;;;;;27.17;18.63;;;;;;;5.27;98.84;101355.91;5063624;28;20415;-53
2021/10/11 02:27:23;;;;;;;29.20;18.73;;;;;;;5.22;98.75;101350.69;5061686;28;20045;-54
2021/10/11 02:29:49;;;;;;;27.60;19.77;;;;;;;5.20;99.35;101351.59;5065052;28;20060;-53
2021/10/11 02:32:16;;;;;;;30.40;18.83;;;;;;;5.22;99.34;101337.56;5062546;28;20497;-54
2021/10/11 02:34:42;;;;;;;28.80;18.50;;;;;;;5.23;99.58;101335.81;5063398;28;20410;-52
2021/10/11 02:37:09;;;;;;;26.98;19.15;;;;;;;5.25;99.69;101315.66;5064186;28;20498;-53
2021/10/11 02:39:36;;;;;;;28.60;18.98;;;;;;;5.25;99.27;101308.66;5062315;28;20418;-53
2021/10/11 02:42:02;;;;;;;30.02;18.95;;;;;;;5.26;99.36;101318.28;5064499;28;20203;-52
2021/10/11 02:44:29;;;;;;;28.50;18.65;;;;;;;5.31;98.87;101317.34;5060640;28;20045;-53
2021/10/11 02:46:55;;;;;;;29.08;18.80;;;;;;;5.28;98.42;101316.50;5063546;28;20040;-52
2021/10/11 02:49:22;;;;;;;30.13;19.02;;;;;;;5.32;98.86;101319.09;5062130;28;20056;-54
2021/10/11 02:51:48;;;;;;;24.88;18.23;;;;;;;5.34;98.62;101314.72;5063983;28;20126;-52
2021/10/11 02:54:23;;;;;;;28.02;18.75;;;;;;;5.29;98.37;101310.38;5059259;28;20406;-54
2021/10/11 02:56:59;;;;;;;29.20;18.80;;;;;;;5.25;98.57;101320.91;5046777;28;20458;-53
2021/10/11 02:59:25;;;;;;;27.55;18.58;;;;;;;5.20;99.20;101315.69;5060030;28;20060;-54
2021/10/11 03:01:51;;;;;;;28.15;18.10;;;;;;;5.21;98.66;101321.81;5062876;28;20041;-53
2021/10/11 03:04:18;;;;;;;29.17;18.52;;;;;;;5.11;99.40;101307.94;5058835;28;20139;-52
2021/10/11 03:06:45;;;;;;;27.90;17.95;;;;;;;5.15;99.51;101314.91;5056087;28;20039;-51
2021/10/11 03:09:11;;;;;;;30.08;19.30;;;;;;;5.13;99.06;101327.16;5064109;28;20049;-51
2021/10/11 03:11:38;;;;;;;30.42;19.48;;;;;;;5.12;99.06;101320.16;5068053;28;20051;-52
2021/10/11 03:14:04;;;;;;;27.33;18.35;;;;;;;5.11;99.44;101320.19;5064841;28;20055;-56
2021/10/11 03:16:32;;;;;;;26.50;18.75;;;;;;;5.15;98.79;101322.78;5062230;28;20045;-53
2021/10/11 03:18:59;;;;;;;29.30;18.58;;;;;;;5.15;98.93;101325.41;5065644;28;20145;-52
2021/10/11 03:21:25;;;;;;;28.58;18.08;;;;;;;5.11;98.83;101318.44;5063965;28;20054;-54
2021/10/11 03:23:51;;;;;;;28.40;19.02;;;;;;;5.11;98.62;101313.19;5064746;28;20048;-51
2021/10/11 03:26:19;;;;;;;26.42;18.42;;;;;;;5.11;99.13;101314.94;5064794;28;20048;-52
2021/10/11 03:28:46;;;;;;;29.25;19.10;;;;;;;5.10;98.74;101308.81;5066981;28;20045;-53
2021/10/11 03:31:12;;;;;;;25.50;18.45;;;;;;;5.07;98.96;101308.84;5067251;28;20128;-52
2021/10/11 03:33:39;;;;;;;24.15;17.92;;;;;;;5.04;99.40;101306.22;5060310;28;20079;-54
2021/10/11 03:36:06;;;;;;;32.30;18.25;;;;;;;5.04;99.63;101308.84;5061587;28;20052;-52
2021/10/11 03:38:32;;;;;;;29.20;17.55;;;;;;;5.07;99.89;101315.84;5059028;28;20052;-54
2021/10/11 03:40:59;;;;;;;28.20;19.15;;;;;;;5.06;100.00;101301.84;5048203;28;20053;-52
2021/10/11 03:43:26;;;;;;;32.13;20.48;;;;;;;5.11;99.83;101307.94;5061426;28;20045;-54
2021/10/11 03:45:54;;;;;;;26.67;18.10;;;;;;;5.08;99.22;101304.44;5059050;28;20052;-54
2021/10/11 03:48:22;;;;;;;26.90;17.73;;;;;;;5.04;99.44;101306.22;5061437;28;20505;-52
2021/10/11 03:50:49;;;;;;;26.52;18.15;;;;;;;5.02;99.38;101302.78;5061112;28;20045;-52
2021/10/11 03:53:16;;;;;;;28.48;18.45;;;;;;;4.99;98.21;101309.81;5058446;28;20429;-52
2021/10/11 03:55:44;;;;;;;32.70;18.52;;;;;;;4.92;98.40;101307.22;5061638;28;20058;-52
2021/10/11 03:58:11;;;;;;;28.38;18.02;;;;;;;4.91;98.47;101307.25;5059712;28;20044;-53
2021/10/11 04:00:37;;;;;;;26.80;17.63;;;;;;;4.89;97.72;101306.38;5060347;28;20059;-53
2021/10/11 04:03:06;;;;;;;25.90;17.40;;;;;;;4.71;97.98;101289.06;5055668;28;20066;-53
2021/10/11 04:05:32;;;;;;;26.48;17.20;;;;;;;4.83;97.93;101306.44;5050293;28;20783;-52
2021/10/11 04:08:04;;;;;;;26.05;16.80;;;;;;;4.82;97.44;101305.59;5056457;28;20056;-53
2021/10/11 04:10:37;;;;;;;29.77;17.85;;;;;;;4.76;97.88;101310.00;5054001;28;20164;-53
2021/10/11 04:13:05;;;;;;;25.55;17.50;;;;;;;4.72;97.84;101306.53;5056613;28;20041;-53
2021/10/11 04:15:32;;;;;;;25.15;17.60;;;;;;;4.71;98.67;101307.44;5056672;28;20048;-53
2021/10/11 04:17:58;;;;;;;22.25;16.73;;;;;;;4.66;98.24;101306.59;5055836;28;20509;-53
2021/10/11 04:20:25;;;;;;;23.67;17.73;;;;;;;4.68;98.78;101310.09;5054167;28;20072;-52
2021/10/11 04:22:51;;;;;;;27.25;18.75;;;;;;;4.53;98.87;101284.84;5056931;28;20573;-53
2021/10/11 04:25:18;;;;;;;26.77;17.85;;;;;;;4.74;99.22;101317.88;5055441;28;20041;-53
2021/10/11 04:27:45;;;;;;;25.42;17.55;;;;;;;4.70;99.07;101307.44;5058514;28;20040;-53
2021/10/11 04:30:11;;;;;;;24.75;17.77;;;;;;;4.70;99.14;101310.94;5057702;28;20055;-53
2021/10/11 04:32:38;;;;;;;25.13;18.50;;;;;;;4.75;99.45;101309.13;5060933;28;20044;-52
2021/10/11 04:35:05;;;;;;;25.52;17.35;;;;;;;4.81;99.05;101318.72;5057862;28;20041;-53
2021/10/11 04:37:31;;;;;;;24.05;17.50;;;;;;;4.78;99.19;101318.72;5054298;28;20041;-53
2021/10/11 04:39:58;;;;;;;24.63;18.17;;;;;;;4.74;98.75;101317.00;5034571;28;20040;-52
2021/10/11 04:42:24;;;;;;;28.42;18.73;;;;;;;4.76;99.83;101326.63;5059165;28;20394;-54
2021/10/11 04:44:50;;;;;;;25.60;18.73;;;;;;;4.77;99.92;101328.34;5060227;28;20056;-54
2021/10/11 04:47:17;;;;;;;23.85;17.45;;;;;;;4.75;100.00;101329.25;5060678;28;20037;-53
2021/10/11 04:49:43;;;;;;;26.85;17.35;;;;;;;4.74;99.34;101333.63;5058074;28;20051;-52
2021/10/11 04:52:10;;;;;;;28.67;18.08;;;;;;;4.75;99.63;101334.50;5058415;28;20045;-53
2021/10/11 04:54:36;;;;;;;23.73;17.67;;;;;;;4.69;99.03;101339.81;5060357;28;20501;-53
2021/10/11 04:57:03;;;;;;;27.10;17.75;;;;;;;4.66;99.30;101337.22;5056189;28;20401;-52
2021/10/11 04:59:29;;;;;;;26.85;18.20;;;;;;;4.68;99.80;101328.44;5052897;28;20513;-52
2021/10/11 05:01:56;;;;;;;27.38;17.58;;;;;;;4.62;99.21;101328.47;5053425;28;20096;-52
2021/10/11 05:04:22;;;;;;;30.10;18.67;;;;;;;4.58;99.35;101329.38;5054011;28;20160;-52
2021/10/11 05:06:49;;;;;;;25.98;17.48;;;;;;;4.55;99.59;101338.16;5062250;28;20087;-60
2021/10/11 05:09:15;;;;;;;26.13;18.27;;;;;;;4.50;99.85;101336.44;5054858;28;20044;-52
2021/10/11 05:11:42;;;;;;;27.80;19.02;;;;;;;4.51;100.00;101341.69;5062078;28;20048;-53
2021/10/11 05:14:08;;;;;;;30.95;19.52;;;;;;;4.48;100.00;101341.72;5053017;28;20056;-53
2021/10/11 05:16:36;;;;;;;29.45;19.13;;;;;;;4.49;100.00;101337.34;5060519;28;21847;-52
2021/10/11 05:19:02;;;;;;;29.23;19.38;;;;;;;4.48;99.74;101346.94;5055766;28;20068;-53
2021/10/11 05:21:30;;;;;;;28.85;18.63;;;;;;;4.45;100.00;101348.72;5058177;28;20060;-54
2021/10/11 05:23:57;;;;;;;25.92;18.40;;;;;;;4.46;99.83;101345.22;5059816;28;20048;-53
2021/10/11 05:26:26;;;;;;;30.15;19.63;;;;;;;4.40;100.00;101340.91;5060306;28;20048;-53
2021/10/11 05:28:53;;;;;;;27.05;19.05;;;;;;;4.38;100.00;101337.41;5060241;28;20048;-52
2021/10/11 05:31:20;;;;;;;30.30;19.42;;;;;;;4.34;100.00;101332.19;5057147;28;20048;-54
2021/10/11 05:33:46;;;;;;;29.00;19.63;;;;;;;4.25;100.00;101320.00;5061856;28;20545;-54
2021/10/11 05:36:13;;;;;;;31.48;20.75;;;;;;;4.16;100.00;101323.56;5064476;28;20489;-53
2021/10/11 05:38:40;;;;;;;29.70;19.70;;;;;;;4.14;100.00;101324.44;5062110;28;20051;-53
2021/10/11 05:41:08;;;;;;;30.23;19.88;;;;;;;4.10;100.00;101328.81;5057661;28;20128;-52
2021/10/11 05:43:35;;;;;;;31.50;20.58;;;;;;;4.09;100.00;101326.25;5058470;28;20067;-54
2021/10/11 05:46:01;;;;;;;30.70;20.17;;;;;;;4.08;100.00;101332.34;5063055;28;20051;-52
2021/10/11 05:48:28;;;;;;;30.80;20.85;;;;;;;4.10;100.00;101333.19;5059747;28;20077;-53
2021/10/11 05:50:54;;;;;;;33.10;20.02;;;;;;;4.16;100.00;101334.03;5057845;28;20051;-53
2021/10/11 05:53:21;;;;;;;29.67;19.95;;;;;;;4.23;100.00;101340.13;5055202;28;20040;-52
2021/10/11 05:55:47;;;;;;;37.63;22.00;;;;;;;4.24;100.00;101347.13;5056925;28;20057;-52
2021/10/11 05:58:14;;;;;;;34.70;21.63;;;;;;;4.25;100.00;101348.84;5055960;28;20045;-53
2021/10/11 06:00:40;;;;;;;30.45;20.67;;;;;;;4.29;100.00;101345.31;5054311;28;20477;-53
2021/10/11 06:03:09;;;;;;;35.22;21.40;;;;;;;4.28;100.00;101343.56;5060441;28;20079;-54
2021/10/11 06:05:35;;;;;;;29.52;20.42;;;;;;;4.25;100.00;101354.06;5060789;28;20056;-54
2021/10/11 06:08:02;;;;;;;31.50;21.00;;;;;;;4.32;100.00;101353.19;5058851;28;20052;-53
2021/10/11 06:10:29;;;;;;;35.05;22.27;;;;;;;4.41;100.00;101362.72;5060273;28;20135;-52
2021/10/11 06:12:56;;;;;;;37.22;21.15;;;;;;;4.47;100.00;101360.94;5056445;28;20053;-52
2021/10/11 06:15:23;;;;;;;35.85;22.88;;;;;;;4.80;100.00;101353.72;5054422;28;20422;-53
2021/10/11 06:17:49;;;;;;;32.85;20.92;;;;;;;4.79;100.00;101358.09;5051706;28;20052;-51
2021/10/11 06:20:16;;;;;;;27.80;19.70;;;;;;;4.76;100.00;101351.97;5057063;28;20045;-51
2021/10/11 06:22:42;;;;;;;30.73;19.92;;;;;;;4.73;100.00;101367.75;5054902;28;20089;-53
2021/10/11 06:25:09;;;;;;;28.65;19.80;;;;;;;4.75;100.00;101356.34;5057013;28;20048;-52
2021/10/11 06:27:37;;;;;;;27.58;19.50;;;;;;;4.75;100.00;101352.88;5051348;28;20049;-53
2021/10/11 06:30:08;;;;;;;30.00;20.25;;;;;;;4.86;100.00;101366.78;5053995;28;20051;-51
2021/10/11 06:32:35;;;;;;;28.35;19.55;;;;;;;4.89;100.00;101374.63;5052400;28;20049;-52
2021/10/11 06:35:01;;;;;;;29.63;19.52;;;;;;;4.93;100.00;101374.59;5058041;28;20523;-54
2021/10/11 06:37:28;;;;;;;29.23;19.95;;;;;;;4.97;100.00;101375.44;5053273;28;20045;-53
2021/10/11 06:39:54;;;;;;;29.23;20.52;;;;;;;5.02;100.00;101386.78;5057773;28;20052;-51
2021/10/11 06:42:21;;;;;;;29.70;20.40;;;;;;;5.05;100.00;101376.22;5050176;28;20040;-53
2021/10/11 06:44:48;;;;;;;30.42;19.20;;;;;;;5.07;100.00;101382.34;5053599;28;20051;-51
2021/10/11 06:47:14;;;;;;;27.77;19.10;;;;;;;5.12;100.00;101374.44;5056268;28;20058;-52
2021/10/11 06:49:42;;;;;;;31.13;20.38;;;;;;;5.22;100.00;101384.81;5058581;28;20051;-51
2021/10/11 06:52:08;;;;;;;31.17;20.98;;;;;;;5.30;100.00;101382.16;5064308;28;20056;-52
2021/10/11 06:54:35;;;;;;;32.40;20.05;;;;;;;5.36;100.00;101379.44;5053950;28;20056;-53
2021/10/11 06:57:01;;;;;;;33.00;21.20;;;;;;;5.44;100.00;101382.00;5058219;28;20048;-52
2021/10/11 06:59:28;;;;;;;35.50;21.85;;;;;;;5.48;100.00;101383.72;5057356;28;20055;-52
2021/10/11 07:01:54;;;;;;;33.75;22.15;;;;;;;5.55;100.00;101372.25;5055657;28;20759;-53
2021/10/11 07:04:34;;;;;;;32.25;21.08;;;;;;;5.65;100.00;101368.66;5053614;28;20074;-52
2021/10/11 07:07:01;;;;;;;36.25;22.42;;;;;;;5.77;100.00;101376.38;5056837;28;20048;-54
2021/10/11 07:09:27;;;;;;;34.75;21.70;;;;;;;5.89;100.00;101392.03;5054743;28;20052;-53
2021/10/11 07:11:54;;;;;;;34.15;21.45;;;;;;;5.99;99.27;101398.03;5053531;28;20540;-52
2021/10/11 07:14:20;;;;;;;41.03;23.15;;;;;;;6.05;98.88;101384.84;5060111;28;20524;-52
2021/10/11 07:16:49;;;;;;;32.17;22.02;;;;;;;6.10;97.97;101390.03;5055536;28;20131;-52
2021/10/11 07:19:15;;;;;;;34.72;21.80;;;;;;;6.15;97.66;101385.56;5055459;28;20040;-52
2021/10/11 07:21:42;;;;;;;37.72;21.63;;;;;;;6.18;96.82;101380.28;5053815;28;20876;-52
2021/10/11 07:24:14;;;;;;;36.58;22.52;;;;;;;6.27;96.62;101380.16;5061198;28;20489;-52
2021/10/11 07:26:41;;;;;;;34.70;20.95;;;;;;;6.35;96.65;101380.91;5053826;28;20052;-52
2021/10/11 07:29:07;;;;;;;34.88;21.70;;;;;;;6.47;96.10;101385.13;5055083;28;20801;-52
2021/10/11 07:31:34;;;;;;;35.60;21.38;;;;;;;6.54;95.44;101384.16;5042403;28;20151;-52
2021/10/11 07:34:00;;;;;;;32.72;20.55;;;;;;;6.58;94.97;101380.59;5050464;28;20048;-55
2021/10/11 07:36:27;;;;;;;33.90;20.25;;;;;;;6.58;94.82;101373.56;5047210;28;20040;-52
2021/10/11 07:38:54;;;;;;;34.45;20.90;;;;;;;6.65;94.90;101383.09;5046279;28;20040;-52
2021/10/11 07:41:20;;;;;;;30.65;20.42;;;;;;;6.73;94.54;101382.13;5046380;28;20060;-52
2021/10/11 07:43:47;;;;;;;30.45;19.40;;;;;;;6.77;92.81;101386.47;5052644;28;20048;-52
2021/10/11 07:46:14;;;;;;;32.30;21.00;;;;;;;6.84;91.66;101393.34;5052989;28;20048;-54
2021/10/11 07:48:41;;;;;;;29.70;20.95;;;;;;;6.82;91.44;101398.63;5051724;28;20517;-51
2021/10/11 07:51:08;;;;;;;32.50;20.75;;;;;;;6.83;91.04;101402.13;5053523;28;20063;-52
2021/10/11 07:53:34;;;;;;;31.50;19.88;;;;;;;6.80;91.03;101403.06;5048946;28;20063;-52
2021/10/11 07:56:01;;;;;;;29.52;20.25;;;;;;;6.78;90.47;101398.69;5053075;28;20314;-52
2021/10/11 07:58:27;;;;;;;31.02;20.30;;;;;;;6.75;91.24;101394.38;5047088;28;20052;-53
2021/10/11 08:00:54;;;;;;;32.53;20.67;;;;;;;6.78;91.04;101391.66;5044885;28;21300;-52
2021/10/11 08:03:22;;;;;;;31.92;20.67;;;;;;;6.84;91.28;101377.56;5049151;28;20048;-53
2021/10/11 08:05:49;;;;;;;31.13;20.77;;;;;;;6.91;90.85;101371.31;5048616;28;20094;-53
2021/10/11 08:08:15;;;;;;;30.10;20.48;;;;;;;6.93;90.58;101366.88;5053967;28;20056;-53
2021/10/11 08:10:44;;;;;;;36.35;20.40;;;;;;;7.03;90.16;101384.25;5052833;28;20048;-52
2021/10/11 08:13:10;;;;;;;33.58;21.02;;;;;;;7.07;90.60;101385.09;5057549;28;20048;-52
2021/10/11 08:15:37;;;;;;;32.85;20.85;;;;;;;7.11;90.04;101382.34;5052906;28;20067;-52
2021/10/11 08:18:03;;;;;;;28.52;20.63;;;;;;;7.12;89.78;101378.84;5059549;28;20067;-53
2021/10/11 08:20:30;;;;;;;36.13;22.67;;;;;;;7.15;89.80;101389.31;5049431;28;20150;-51
2021/10/11 08:22:57;;;;;;;34.25;20.77;;;;;;;7.22;89.88;101385.69;5049458;28;20055;-53
2021/10/11 08:25:23;;;;;;;36.67;21.20;;;;;;;7.25;89.31;101392.66;5051094;28;20072;-53
2021/10/11 08:27:50;;;;;;;30.55;20.48;;;;;;;7.21;88.34;101389.22;5049204;28;20801;-51
2021/10/11 08:30:16;;;;;;;31.48;20.40;;;;;;;7.19;88.96;101395.41;5048801;28;20049;-52
2021/10/11 08:32:43;;;;;;;33.25;19.90;;;;;;;7.23;88.76;101400.63;5055410;28;20055;-52
2021/10/11 08:35:10;;;;;;;28.67;19.70;;;;;;;7.25;88.50;101403.19;5047094;28;20051;-52
2021/10/11 08:37:36;;;;;;;30.52;20.88;;;;;;;7.21;88.38;101394.50;5047768;28;20049;-51
2021/10/11 08:40:03;;;;;;;30.75;20.38;;;;;;;7.31;88.71;101411.00;5057564;28;20053;-52
2021/10/11 08:42:30;;;;;;;27.48;19.33;;;;;;;7.38;88.37;101412.66;5054560;28;20056;-51
2021/10/11 08:44:57;;;;;;;28.38;19.58;;;;;;;7.43;88.61;101410.78;5051504;28;20056;-52
2021/10/11 08:47:23;;;;;;;29.73;20.83;;;;;;;7.51;88.15;101414.16;5050575;28;20037;-53
2021/10/11 08:49:50;;;;;;;30.02;20.33;;;;;;;7.59;87.61;101414.88;5059014;28;20049;-52
2021/10/11 08:52:23;;;;;;;32.60;20.90;;;;;;;7.68;87.42;101411.22;5063935;28;20044;-53
2021/10/11 08:54:52;;;;;;;27.40;19.70;;;;;;;7.69;87.51;101411.19;5051321;28;20045;-52
2021/10/11 08:57:29;;;;;;;29.92;19.35;;;;;;;7.73;86.91;101407.56;5055233;28;20075;-53
2021/10/11 09:00:11;;;;;;;29.73;20.23;;;;;;;7.81;87.63;101409.22;5055888;28;20050;-52
2021/10/11 09:02:56;;;;;;;30.15;20.83;;;;;;;7.81;86.97;101407.44;5056155;28;20053;-51
2021/10/11 09:05:37;;;;;;;28.52;20.00;;;;;;;7.85;87.49;101406.50;5057832;28;20454;-51
2021/10/11 09:08:12;;;;;;;29.70;20.40;;;;;;;7.75;87.23;101383.81;5061044;28;20049;-51
2021/10/11 09:10:50;;;;;;;29.42;20.67;;;;;;;7.97;87.51;101410.66;5057563;28;20086;-53
2021/10/11 09:13:17;;;;;;;31.85;21.13;;;;;;;8.02;87.10;101407.03;5056742;28;20041;-53
2021/10/11 09:15:44;;;;;;;30.25;20.63;;;;;;;8.07;86.17;101412.19;5063592;28;20102;-53
2021/10/11 09:18:12;;;;;;;28.63;20.48;;;;;;;8.12;86.06;101401.53;5055728;28;20676;-53
2021/10/11 09:20:40;;;;;;;30.20;20.63;;;;;;;8.23;86.09;101408.31;5063725;28;20051;-53
2021/10/11 09:23:08;;;;;;;33.15;22.02;;;;;;;8.43;84.67;101423.78;5061352;28;20044;-53
2021/10/11 09:25:38;;;;;;;32.13;20.13;;;;;;;8.56;83.72;101421.72;5051836;28;20056;-53
2021/10/11 09:28:06;;;;;;;31.42;20.88;;;;;;;8.61;82.63;101417.22;5063946;28;20058;-53
2021/10/11 09:30:41;;;;;;;38.15;21.85;;;;;;;8.61;82.67;101414.59;5060478;28;20102;-53
2021/10/11 09:33:12;;;;;;;38.15;21.85;;;;;;;8.69;82.46;101409.97;5061051;28;20040;-53
2021/10/11 09:35:40;;;;;;;33.17;21.20;;;;;;;8.82;82.72;101410.56;5063086;28;20414;-51
2021/10/11 09:38:25;;;;;;;37.65;23.05;;;;;;;8.99;82.74;101414.53;5059642;28;20040;-52
2021/10/11 09:40:59;;;;;;;34.33;23.38;;;;;;;9.22;81.53;101419.25;5057059;28;20049;-53
2021/10/11 09:43:28;;;;;;;35.00;22.50;;;;;;;9.38;80.52;101417.97;5053888;28;20048;-53
2021/10/11 09:45:56;;;;;;;59.17;43.67;;;;;;;9.47;79.80;101420.38;5054505;28;20060;-53
2021/10/11 09:48:23;;;;;;;172.85;155.10;;;;;;;9.62;80.21;101413.78;5041137;28;20041;-57
2021/10/11 09:50:50;;;;;;;52.00;39.55;;;;;;;9.78;79.09;101416.91;5052341;28;20060;-53
2021/10/11 09:53:17;;;;;;;40.08;24.75;;;;;;;9.89;79.04;101404.25;5060398;28;20453;-52
2021/10/11 09:55:44;;;;;;;37.38;24.73;;;;;;;9.85;78.36;101397.31;5063506;28;20044;-52
2021/10/11 09:58:12;;;;;;;672.90;603.97;;;;;;;9.89;78.81;101404.25;5053781;28;20054;-53
2021/10/11 10:00:41;;;;;;;1375.18;940.03;;;;;;;9.98;79.20;101395.19;5059962;28;20055;-51
2021/10/11 10:03:14;;;;;;;64.20;51.63;;;;;;;9.92;78.53;101382.97;5058364;28;20056;-53
2021/10/11 10:05:45;;;;;;;48.17;28.88;;;;;;;10.02;78.94;101386.25;5060234;28;20045;-52
2021/10/11 10:08:15;;;;;;;;;;;;;;;10.04;79.71;101380.00;5054760;28;20139;-51
2021/10/11 10:10:43;;;;;;;42.80;27.38;;;;;;;10.12;79.10;101390.34;5062190;28;19981;-54
2021/10/11 10:13:15;;;;;;;52.53;31.60;;;;;;;10.14;78.52;101383.25;5056353;28;20175;-53
2021/10/11 10:15:42;;;;;;;42.20;26.48;;;;;;;10.17;78.34;101386.66;5054893;28;20055;-57
2021/10/11 10:18:12;;;;;;;43.92;28.60;;;;;;;10.13;79.09;101384.16;5052385;28;20053;-56
2021/10/11 10:20:59;;;;;;;44.27;27.53;;;;;;;10.07;79.42;101374.59;5055054;28;20048;-53
2021/10/11 10:23:28;;;;;;;41.20;26.15;;;;;;;10.04;79.27;101379.13;5059719;28;20605;-52
2021/10/11 10:26:01;;;;;;;44.00;28.02;;;;;;;10.02;79.89;101376.53;5057709;28;20040;-52
2021/10/11 10:28:50;;;;;;;43.35;28.45;;;;;;;10.04;79.62;101371.19;5053873;28;20060;-52
2021/10/11 10:31:29;;;;;;;46.22;28.08;;;;;;;10.09;79.69;101374.56;5057936;28;20049;-52
2021/10/11 10:33:56;;;;;;;51.88;33.67;;;;;;;10.11;80.13;101380.69;5061682;28;20036;-53
2021/10/11 10:36:28;;;;;;;46.17;28.98;;;;;;;10.19;79.81;101387.53;5058432;28;20047;-52
2021/10/11 10:39:04;;;;;;;43.85;28.27;;;;;;;10.16;80.25;101368.19;5055285;28;20064;-52
2021/10/11 10:41:31;;;;;;;45.25;28.08;;;;;;;10.16;80.76;101368.19;5053969;28;20041;-52
2021/10/11 10:44:09;;;;;;;49.70;30.40;;;;;;;10.20;80.43;101367.22;5058073;28;20047;-52
2021/10/11 10:46:35;;;;;;;46.58;29.08;;;;;;;10.26;81.09;101368.81;5051844;28;20049;-52
2021/10/11 10:49:02;;;;;;;48.55;29.50;;;;;;;10.36;80.98;101365.84;5058416;28;20044;-53
2021/10/11 10:51:28;;;;;;;44.60;29.48;;;;;;;10.52;80.24;101364.47;5056877;28;20511;-52
2021/10/11 10:53:58;;;;;;;49.13;29.98;;;;;;;10.66;79.05;101360.50;5052863;28;20044;-53
2021/10/11 10:56:25;;;;;;;42.22;28.40;;;;;;;10.69;78.86;101368.34;5050930;28;20052;-52
2021/10/11 10:59:04;;;;;;;42.42;27.63;;;;;;;10.73;78.73;101370.84;5056524;28;20045;-52
2021/10/11 11:01:30;;;;;;;48.40;29.00;;;;;;;10.79;78.43;101375.94;5058041;28;20531;-54
2021/10/11 11:03:57;;;;;;;46.80;29.60;;;;;;;10.79;78.64;101373.31;5052012;28;20040;-51
2021/10/11 11:06:31;;;;;;;40.67;28.63;;;;;;;10.81;79.01;101374.13;5062642;28;20068;-53
2021/10/11 11:09:01;;;;;;;43.95;28.58;;;;;;;10.81;79.13;101375.91;5048865;28;20087;-52
2021/10/11 11:11:29;;;;;;;45.25;29.20;;;;;;;10.78;79.41;101376.88;5056784;28;20139;-59
2021/10/11 11:13:58;;;;;;;43.97;28.52;;;;;;;10.81;79.29;101370.59;5053154;28;20044;-53
2021/10/11 11:16:30;;;;;;;41.90;28.38;;;;;;;10.85;79.43;101365.16;5057313;28;20057;-51